sensor_id;sensor_type;location;lat;lon;timestamp;pressure;altitude;pressure_sealevel;temperature;humidity
42945;BME280;28584;42.636;23.294;2022-07-19T00:01:34;163179.16;;;17.34;100.00
42945;BME280;28584;42.636;23.294;2022-07-19T00:04:00;163184.50;;;17.36;100.00
42945;BME280;28584;42.636;23.294;2022-07-19T00:06:26;163173.78;;;17.32;100.00
42945;BME280;28584;42.636;23.294;2022-07-19T00:08:52;163159.00;;;17.27;100.00
42945;BME280;28584;42.636;23.294;2022-07-19T00:11:17;163140.22;;;17.20;100.00
42945;BME280;28584;42.636;23.294;2022-07-19T00:13:43;163140.22;;;17.20;100.00
42945;BME280;28584;42.636;23.294;2022-07-19T00:16:08;163137.53;;;17.19;100.00
42945;BME280;28584;42.636;23.294;2022-07-19T00:18:34;163125.44;;;17.14;100.00
42945;BME280;28584;42.636;23.294;2022-07-19T00:21:00;163125.44;;;17.14;100.00
42945;BME280;28584;42.636;23.294;2022-07-19T00:23:25;163132.16;;;17.17;100.00
42945;BME280;28584;42.636;23.294;2022-07-19T00:25:51;163124.09;;;17.14;100.00
42945;BME280;28584;42.636;23.294;2022-07-19T00:28:16;163108.03;;;17.08;100.00
42945;BME280;28584;42.636;23.294;2022-07-19T00:30:42;163073.09;;;16.95;100.00
42945;BME280;28584;42.636;23.294;2022-07-19T00:33:07;163065.03;;;16.92;100.00
42945;BME280;28584;42.636;23.294;2022-07-19T00:35:42;163035.53;;;16.81;100.00
42945;BME280;28584;42.636;23.294;2022-07-19T00:38:10;163031.50;;;16.79;100.00
42945;BME280;28584;42.636;23.294;2022-07-19T00:40:36;163030.13;;;16.79;100.00
42945;BME280;28584;42.636;23.294;2022-07-19T00:43:03;163023.44;;;16.76;100.00
42945;BME280;28584;42.636;23.294;2022-07-19T00:45:28;163014.06;;;16.73;100.00
42945;BME280;28584;42.636;23.294;2022-07-19T00:47:54;163000.63;;;16.68;100.00
42945;BME280;28584;42.636;23.294;2022-07-19T00:50:20;162976.50;;;16.59;100.00
42945;BME280;28584;42.636;23.294;2022-07-19T00:52:49;162936.19;;;16.43;100.00
42945;BME280;28584;42.636;23.294;2022-07-19T00:55:18;162908.00;;;16.33;100.00
42945;BME280;28584;42.636;23.294;2022-07-19T00:57:45;162861.03;;;16.15;100.00
42945;BME280;28584;42.636;23.294;2022-07-19T01:00:10;162832.88;;;16.05;100.00
42945;BME280;28584;42.636;23.294;2022-07-19T01:02:36;162791.28;;;15.89;100.00
42945;BME280;28584;42.636;23.294;2022-07-19T01:05:04;162753.75;;;15.75;100.00
42945;BME280;28584;42.636;23.294;2022-07-19T01:07:30;162728.22;;;15.66;100.00
42945;BME280;28584;42.636;23.294;2022-07-19T01:09:55;162713.47;;;15.60;100.00
42945;BME280;28584;42.636;23.294;2022-07-19T01:12:21;162697.38;;;15.54;100.00
42945;BME280;28584;42.636;23.294;2022-07-19T01:14:48;162693.41;;;15.53;100.00
42945;BME280;28584;42.636;23.294;2022-07-19T01:17:14;162702.75;;;15.56;100.00
42945;BME280;28584;42.636;23.294;2022-07-19T01:19:42;162702.75;;;15.56;100.00
42945;BME280;28584;42.636;23.294;2022-07-19T01:22:08;162688.00;;;15.51;100.00
42945;BME280;28584;42.636;23.294;2022-07-19T01:24:33;162667.88;;;15.43;100.00
42945;BME280;28584;42.636;23.294;2022-07-19T01:26:59;162659.84;;;15.40;100.00
42945;BME280;28584;42.636;23.294;2022-07-19T01:29:24;162659.84;;;15.40;100.00
42945;BME280;28584;42.636;23.294;2022-07-19T01:31:52;162638.34;;;15.32;100.00
42945;BME280;28584;42.636;23.294;2022-07-19T01:34:17;162635.69;;;15.31;100.00
42945;BME280;28584;42.636;23.294;2022-07-19T01:36:43;162624.97;;;15.27;100.00
42945;BME280;28584;42.636;23.294;2022-07-19T01:39:08;162628.97;;;15.29;100.00
42945;BME280;28584;42.636;23.294;2022-07-19T01:41:34;162622.25;;;15.26;100.00
42945;BME280;28584;42.636;23.294;2022-07-19T01:43:59;162604.81;;;15.20;100.00
42945;BME280;28584;42.636;23.294;2022-07-19T01:46:24;162584.72;;;15.12;100.00
42945;BME280;28584;42.636;23.294;2022-07-19T01:48:50;162579.38;;;15.10;100.00
42945;BME280;28584;42.636;23.294;2022-07-19T01:51:15;162549.91;;;14.99;100.00
42945;BME280;28584;42.636;23.294;2022-07-19T01:53:41;162541.84;;;14.96;100.00
42945;BME280;28584;42.636;23.294;2022-07-19T01:56:07;162533.78;;;14.93;100.00
42945;BME280;28584;42.636;23.294;2022-07-19T01:58:33;162540.50;;;14.96;100.00
42945;BME280;28584;42.636;23.294;2022-07-19T02:00:58;162525.75;;;14.90;100.00
42945;BME280;28584;42.636;23.294;2022-07-19T02:03:23;162517.69;;;14.87;100.00
42945;BME280;28584;42.636;23.294;2022-07-19T02:05:50;162515.03;;;14.86;100.00
42945;BME280;28584;42.636;23.294;2022-07-19T02:08:15;162498.94;;;14.80;100.00
42945;BME280;28584;42.636;23.294;2022-07-19T02:10:40;162477.50;;;14.72;100.00
42945;BME280;28584;42.636;23.294;2022-07-19T02:13:06;162457.41;;;14.65;100.00
42945;BME280;28584;42.636;23.294;2022-07-19T02:15:31;162454.72;;;14.64;100.00
42945;BME280;28584;42.636;23.294;2022-07-19T02:17:57;162442.66;;;14.59;100.00
42945;BME280;28584;42.636;23.294;2022-07-19T02:20:23;162435.97;;;14.57;100.00
42945;BME280;28584;42.636;23.294;2022-07-19T02:22:48;162437.28;;;14.57;100.00
42945;BME280;28584;42.636;23.294;2022-07-19T02:25:14;162418.50;;;14.50;100.00
42945;BME280;28584;42.636;23.294;2022-07-19T02:27:40;162399.75;;;14.43;100.00
42945;BME280;28584;42.636;23.294;2022-07-19T02:30:06;162411.81;;;14.48;100.00
42945;BME280;28584;42.636;23.294;2022-07-19T02:32:32;162407.81;;;14.46;100.00
42945;BME280;28584;42.636;23.294;2022-07-19T02:34:57;162409.16;;;14.47;100.00
42945;BME280;28584;42.636;23.294;2022-07-19T02:37:23;162397.09;;;14.42;100.00
42945;BME280;28584;42.636;23.294;2022-07-19T02:39:49;162387.75;;;14.39;100.00
42945;BME280;28584;42.636;23.294;2022-07-19T02:42:14;162366.28;;;14.31;100.00
42945;BME280;28584;42.636;23.294;2022-07-19T02:44:40;162348.88;;;14.24;100.00
42945;BME280;28584;42.636;23.294;2022-07-19T02:47:05;162319.34;;;14.13;100.00
42945;BME280;28584;42.636;23.294;2022-07-19T02:49:30;162295.22;;;14.04;100.00
42945;BME280;28584;42.636;23.294;2022-07-19T02:51:56;162291.19;;;14.03;100.00
42945;BME280;28584;42.636;23.294;2022-07-19T02:54:21;162267.13;;;13.94;100.00
42945;BME280;28584;42.636;23.294;2022-07-19T02:56:47;162255.06;;;13.89;100.00
42945;BME280;28584;42.636;23.294;2022-07-19T02:59:12;162244.34;;;13.85;100.00
42945;BME280;28584;42.636;23.294;2022-07-19T03:01:37;162233.59;;;13.81;100.00
42945;BME280;28584;42.636;23.294;2022-07-19T03:04:03;162233.59;;;13.81;100.00
42945;BME280;28584;42.636;23.294;2022-07-19T03:06:28;162232.28;;;13.80;100.00
42945;BME280;28584;42.636;23.294;2022-07-19T03:08:54;162220.22;;;13.76;100.00
42945;BME280;28584;42.636;23.294;2022-07-19T03:11:19;162213.53;;;13.73;100.00
42945;BME280;28584;42.636;23.294;2022-07-19T03:13:45;162214.84;;;13.74;100.00
42945;BME280;28584;42.636;23.294;2022-07-19T03:16:10;162225.59;;;13.78;100.00
42945;BME280;28584;42.636;23.294;2022-07-19T03:18:36;162233.59;;;13.81;100.00
42945;BME280;28584;42.636;23.294;2022-07-19T03:21:02;162241.63;;;13.84;100.00
42945;BME280;28584;42.636;23.294;2022-07-19T03:23:31;162273.81;;;13.96;100.00
42945;BME280;28584;42.636;23.294;2022-07-19T03:25:56;162309.97;;;14.10;100.00
42945;BME280;28584;42.636;23.294;2022-07-19T03:28:22;162355.56;;;14.27;100.00
42945;BME280;28584;42.636;23.294;2022-07-19T03:30:47;162402.47;;;14.44;100.00
42945;BME280;28584;42.636;23.294;2022-07-19T03:33:12;162440.00;;;14.58;100.00
42945;BME280;28584;42.636;23.294;2022-07-19T03:35:42;162512.38;;;14.85;100.00
42945;BME280;28584;42.636;23.294;2022-07-19T03:38:09;162574.00;;;15.08;100.00
42945;BME280;28584;42.636;23.294;2022-07-19T03:40:35;162641.00;;;15.33;100.00
42945;BME280;28584;42.636;23.294;2022-07-19T03:43:00;162705.44;;;15.57;100.00
42945;BME280;28584;42.636;23.294;2022-07-19T03:45:26;162764.47;;;15.79;100.00
42945;BME280;28584;42.636;23.294;2022-07-19T03:47:51;162818.06;;;15.99;100.00
42945;BME280;28584;42.636;23.294;2022-07-19T03:50:16;162836.91;;;16.06;100.00
42945;BME280;28584;42.636;23.294;2022-07-19T03:52:42;162820.78;;;16.00;100.00
42945;BME280;28584;42.636;23.294;2022-07-19T03:55:07;162862.38;;;16.16;100.00
42945;BME280;28584;42.636;23.294;2022-07-19T03:57:33;162930.81;;;16.41;100.00
42945;BME280;28584;42.636;23.294;2022-07-19T03:59:58;162960.38;;;16.53;100.00
42945;BME280;28584;42.636;23.294;2022-07-19T04:02:24;163032.84;;;16.80;100.00
42945;BME280;28584;42.636;23.294;2022-07-19T04:04:49;163031.50;;;16.79;100.00
42945;BME280;28584;42.636;23.294;2022-07-19T04:07:15;163059.69;;;16.90;100.00
42945;BME280;28584;42.636;23.294;2022-07-19T04:09:40;163095.94;;;17.03;100.00
42945;BME280;28584;42.636;23.294;2022-07-19T04:12:06;163154.97;;;17.25;100.00
42945;BME280;28584;42.636;23.294;2022-07-19T04:14:31;163215.44;;;17.48;100.00
42945;BME280;28584;42.636;23.294;2022-07-19T04:16:57;163266.50;;;17.67;100.00
42945;BME280;28584;42.636;23.294;2022-07-19T04:19:22;163399.50;;;18.16;100.00
42945;BME280;28584;42.636;23.294;2022-07-19T04:21:54;163576.91;;;18.82;100.00
42945;BME280;28584;42.636;23.294;2022-07-19T04:24:19;163732.88;;;19.41;100.00
42945;BME280;28584;42.636;23.294;2022-07-19T04:26:44;163906.41;;;20.05;100.00
42945;BME280;28584;42.636;23.294;2022-07-19T04:29:10;164053.09;;;20.60;100.00
42945;BME280;28584;42.636;23.294;2022-07-19T04:31:35;164049.06;;;20.58;100.00
42945;BME280;28584;42.636;23.294;2022-07-19T04:34:01;164191.75;;;21.11;98.19
42945;BME280;28584;42.636;23.294;2022-07-19T04:36:26;164283.31;;;21.45;93.49
42945;BME280;28584;42.636;23.294;2022-07-19T04:38:51;164321.00;;;21.59;90.46
42945;BME280;28584;42.636;23.294;2022-07-19T04:41:17;164405.91;;;21.91;85.45
42945;BME280;28584;42.636;23.294;2022-07-19T04:43:42;164473.25;;;22.16;80.89
42945;BME280;28584;42.636;23.294;2022-07-19T04:46:08;164450.34;;;22.08;85.89
42945;BME280;28584;42.636;23.294;2022-07-19T04:48:33;164551.38;;;22.45;78.35
42945;BME280;28584;42.636;23.294;2022-07-19T04:50:59;164620.16;;;22.71;73.11
42945;BME280;28584;42.636;23.294;2022-07-19T04:53:24;164396.47;;;21.88;83.18
42945;BME280;28584;42.636;23.294;2022-07-19T04:55:49;164012.69;;;20.45;100.00
42945;BME280;28584;42.636;23.294;2022-07-19T04:58:15;164055.78;;;20.61;100.00
42945;BME280;28584;42.636;23.294;2022-07-19T05:00:42;164220.03;;;21.22;97.38
42945;BME280;28584;42.636;23.294;2022-07-19T05:03:07;164264.47;;;21.38;96.52
42945;BME280;28584;42.636;23.294;2022-07-19T05:05:33;164496.16;;;22.25;84.64
42945;BME280;28584;42.636;23.294;2022-07-19T05:07:58;164434.19;;;22.02;84.26
42945;BME280;28584;42.636;23.294;2022-07-19T05:10:24;164506.94;;;22.29;83.01
42945;BME280;28584;42.636;23.294;2022-07-19T05:12:49;164423.41;;;21.98;88.00
42945;BME280;28584;42.636;23.294;2022-07-19T05:15:15;164299.47;;;21.51;91.61
42945;BME280;28584;42.636;23.294;2022-07-19T05:17:40;164544.66;;;22.43;86.47
42945;BME280;28584;42.636;23.294;2022-07-19T05:20:07;164396.47;;;21.88;87.30
42945;BME280;28584;42.636;23.294;2022-07-19T05:22:33;164613.44;;;22.68;79.72
42945;BME280;28584;42.636;23.294;2022-07-19T05:24:59;164639.03;;;22.78;76.22
42945;BME280;28584;42.636;23.294;2022-07-19T05:27:24;164709.13;;;23.04;73.38
42945;BME280;28584;42.636;23.294;2022-07-19T05:29:50;164205.25;;;21.16;89.17
42945;BME280;28584;42.636;23.294;2022-07-19T05:32:15;164478.63;;;22.18;87.25
42945;BME280;28584;42.636;23.294;2022-07-19T05:34:41;164698.34;;;23.00;73.95
42945;BME280;28584;42.636;23.294;2022-07-19T05:37:06;164501.53;;;22.27;77.86
42945;BME280;28584;42.636;23.294;2022-07-19T05:39:32;164742.81;;;23.16;75.95
42945;BME280;28584;42.636;23.294;2022-07-19T05:41:58;164924.88;;;23.84;67.61
42945;BME280;28584;42.636;23.294;2022-07-19T05:44:23;165055.72;;;24.33;62.78
42945;BME280;28584;42.636;23.294;2022-07-19T05:46:49;164839.91;;;23.52;69.46
42945;BME280;28584;42.636;23.294;2022-07-19T05:49:14;164804.84;;;23.39;67.48
42945;BME280;28584;42.636;23.294;2022-07-19T05:51:40;164821.03;;;23.45;70.44
42945;BME280;28584;42.636;23.294;2022-07-19T05:54:06;164960.00;;;23.97;63.82
42945;BME280;28584;42.636;23.294;2022-07-19T05:56:32;165102.97;;;24.50;60.70
42945;BME280;28584;42.636;23.294;2022-07-19T05:58:58;165209.63;;;24.90;59.29
42945;BME280;28584;42.636;23.294;2022-07-19T06:01:24;165210.94;;;24.90;56.34
42945;BME280;28584;42.636;23.294;2022-07-19T06:03:58;165277.09;;;25.15;55.42
42945;BME280;28584;42.636;23.294;2022-07-19T06:06:25;165329.78;;;25.34;55.20
42945;BME280;28584;42.636;23.294;2022-07-19T06:08:51;165408.09;;;25.63;53.45
42945;BME280;28584;42.636;23.294;2022-07-19T06:11:18;165389.19;;;25.56;52.22
42945;BME280;28584;42.636;23.294;2022-07-19T06:13:45;164928.94;;;23.85;59.64
42945;BME280;28584;42.636;23.294;2022-07-19T06:16:10;165105.66;;;24.51;58.93
42945;BME280;28584;42.636;23.294;2022-07-19T06:18:37;165248.78;;;25.04;55.24
42945;BME280;28584;42.636;23.294;2022-07-19T06:21:06;165100.28;;;24.49;55.93
42945;BME280;28584;42.636;23.294;2022-07-19T06:23:32;165289.25;;;25.19;55.12
42945;BME280;28584;42.636;23.294;2022-07-19T06:25:57;165359.47;;;25.45;54.18
42945;BME280;28584;42.636;23.294;2022-07-19T06:28:23;165078.66;;;24.41;59.26
42945;BME280;28584;42.636;23.294;2022-07-19T06:30:49;165310.81;;;25.27;53.83
42945;BME280;28584;42.636;23.294;2022-07-19T06:33:14;165394.56;;;25.58;52.63
42945;BME280;28584;42.636;23.294;2022-07-19T06:35:40;165460.75;;;25.83;50.33
42945;BME280;28584;42.636;23.294;2022-07-19T06:38:06;165494.50;;;25.95;50.44
42945;BME280;28584;42.636;23.294;2022-07-19T06:40:32;165375.66;;;25.51;52.18
42945;BME280;28584;42.636;23.294;2022-07-19T06:42:57;165586.38;;;26.29;50.32
42945;BME280;28584;42.636;23.294;2022-07-19T06:45:23;165539.09;;;26.12;50.10
42945;BME280;28584;42.636;23.294;2022-07-19T06:47:49;165490.44;;;25.94;50.09
42945;BME280;28584;42.636;23.294;2022-07-19T06:50:17;165691.78;;;26.69;48.43
42945;BME280;28584;42.636;23.294;2022-07-19T06:52:42;165564.75;;;26.21;49.58
42945;BME280;28584;42.636;23.294;2022-07-19T06:55:08;165618.78;;;26.41;48.51
42945;BME280;28584;42.636;23.294;2022-07-19T06:57:33;165405.38;;;25.62;49.29
42945;BME280;28584;42.636;23.294;2022-07-19T06:59:59;165487.75;;;25.93;49.84
42945;BME280;28584;42.636;23.294;2022-07-19T07:02:24;165427.00;;;25.70;49.32
42945;BME280;28584;42.636;23.294;2022-07-19T07:04:50;165622.84;;;26.43;49.26
42945;BME280;28584;42.636;23.294;2022-07-19T07:07:15;165748.53;;;26.90;47.35
42945;BME280;28584;42.636;23.294;2022-07-19T07:09:41;165759.31;;;26.94;45.56
42945;BME280;28584;42.636;23.294;2022-07-19T07:12:06;165772.88;;;26.99;44.50
42945;BME280;28584;42.636;23.294;2022-07-19T07:14:34;165844.53;;;27.25;44.94
42945;BME280;28584;42.636;23.294;2022-07-19T07:16:59;165872.88;;;27.36;43.93
42945;BME280;28584;42.636;23.294;2022-07-19T07:19:25;165797.16;;;27.08;43.61
42945;BME280;28584;42.636;23.294;2022-07-19T07:21:50;165620.16;;;26.42;44.70
42945;BME280;28584;42.636;23.294;2022-07-19T07:24:16;165894.53;;;27.44;42.38
42945;BME280;28584;42.636;23.294;2022-07-19T07:26:41;165891.81;;;27.43;40.58
42945;BME280;28584;42.636;23.294;2022-07-19T07:29:08;165876.94;;;27.37;37.70
42945;BME280;28584;42.636;23.294;2022-07-19T07:31:34;165879.69;;;27.38;37.74
42945;BME280;28584;42.636;23.294;2022-07-19T07:33:59;166070.28;;;28.09;38.27
42945;BME280;28584;42.636;23.294;2022-07-19T07:36:24;166027.06;;;27.93;38.97
42945;BME280;28584;42.636;23.294;2022-07-19T07:38:50;165983.72;;;27.77;38.54
42945;BME280;28584;42.636;23.294;2022-07-19T07:41:15;165959.41;;;27.68;38.10
42945;BME280;28584;42.636;23.294;2022-07-19T07:43:41;166035.16;;;27.96;38.28
42945;BME280;28584;42.636;23.294;2022-07-19T07:46:06;165948.56;;;27.64;38.45
42945;BME280;28584;42.636;23.294;2022-07-19T07:48:32;165968.84;;;27.71;38.17
42945;BME280;28584;42.636;23.294;2022-07-19T07:50:57;166035.16;;;27.96;37.09
42945;BME280;28584;42.636;23.294;2022-07-19T07:53:23;166056.78;;;28.04;35.45
42945;BME280;28584;42.636;23.294;2022-07-19T07:55:48;165935.06;;;27.59;36.02
42945;BME280;28584;42.636;23.294;2022-07-19T07:58:14;165789.03;;;27.05;38.19
42945;BME280;28584;42.636;23.294;2022-07-19T08:00:40;165994.53;;;27.81;37.65
42945;BME280;28584;42.636;23.294;2022-07-19T08:03:06;165762.00;;;26.95;39.55
42945;BME280;28584;42.636;23.294;2022-07-19T08:05:32;165960.75;;;27.68;39.85
42945;BME280;28584;42.636;23.294;2022-07-19T08:07:59;166213.72;;;28.62;34.86
42945;BME280;28584;42.636;23.294;2022-07-19T08:10:27;166165.03;;;28.44;36.99
42945;BME280;28584;42.636;23.294;2022-07-19T08:12:53;166289.47;;;28.90;34.67
42945;BME280;28584;42.636;23.294;2022-07-19T08:15:19;166279.97;;;28.86;36.53
42945;BME280;28584;42.636;23.294;2022-07-19T08:17:45;166058.16;;;28.04;36.73
42945;BME280;28584;42.636;23.294;2022-07-19T08:20:11;165997.28;;;27.82;37.54
42945;BME280;28584;42.636;23.294;2022-07-19T08:22:36;166127.06;;;28.30;35.80
42945;BME280;28584;42.636;23.294;2022-07-19T08:25:03;165979.66;;;27.75;37.78
42945;BME280;28584;42.636;23.294;2022-07-19T08:27:28;166086.53;;;28.15;37.81
42945;BME280;28584;42.636;23.294;2022-07-19T08:29:54;166289.47;;;28.90;36.78
42945;BME280;28584;42.636;23.294;2022-07-19T08:32:19;166382.81;;;29.25;35.99
42945;BME280;28584;42.636;23.294;2022-07-19T08:34:45;166535.78;;;29.81;34.22
42945;BME280;28584;42.636;23.294;2022-07-19T08:37:10;166636.03;;;30.18;34.38
42945;BME280;28584;42.636;23.294;2022-07-19T08:39:36;166825.63;;;30.88;33.35
42945;BME280;28584;42.636;23.294;2022-07-19T08:42:02;167004.47;;;31.55;30.85
42945;BME280;28584;42.636;23.294;2022-07-19T08:44:28;167130.53;;;32.01;31.39
42945;BME280;28584;42.636;23.294;2022-07-19T08:46:55;167259.31;;;32.49;30.39
42945;BME280;28584;42.636;23.294;2022-07-19T08:49:20;167443.75;;;33.17;28.60
42945;BME280;28584;42.636;23.294;2022-07-19T08:51:48;167533.28;;;33.50;29.38
42945;BME280;28584;42.636;23.294;2022-07-19T08:54:14;167224.13;;;32.36;29.65
42945;BME280;28584;42.636;23.294;2022-07-19T08:56:40;166654.97;;;30.25;31.67
42945;BME280;28584;42.636;23.294;2022-07-19T08:59:24;166588.56;;;30.01;32.47
42945;BME280;28584;42.636;23.294;2022-07-19T09:01:50;166644.16;;;30.21;32.65
42945;BME280;28584;42.636;23.294;2022-07-19T09:04:19;166715.91;;;30.48;32.63
42945;BME280;28584;42.636;23.294;2022-07-19T09:06:55;166752.44;;;30.61;31.15
42945;BME280;28584;42.636;23.294;2022-07-19T09:09:28;166748.38;;;30.60;32.04
42945;BME280;28584;42.636;23.294;2022-07-19T09:11:56;166845.97;;;30.96;31.55
42945;BME280;28584;42.636;23.294;2022-07-19T09:14:34;166976.03;;;31.44;31.53
42945;BME280;28584;42.636;23.294;2022-07-19T09:17:03;166627.84;;;30.15;32.33
42945;BME280;28584;42.636;23.294;2022-07-19T09:19:31;166648.22;;;30.23;32.27
42945;BME280;28584;42.636;23.294;2022-07-19T09:22:04;166167.72;;;28.45;33.49
42945;BME280;28584;42.636;23.294;2022-07-19T09:24:31;166362.56;;;29.17;33.19
42945;BME280;28584;42.636;23.294;2022-07-19T09:27:10;166409.88;;;29.35;32.57
42945;BME280;28584;42.636;23.294;2022-07-19T09:29:40;166533.09;;;29.80;32.31
42945;BME280;28584;42.636;23.294;2022-07-19T09:32:16;166646.84;;;30.22;31.23
42945;BME280;28584;42.636;23.294;2022-07-19T09:34:58;166622.41;;;30.13;31.74
42945;BME280;28584;42.636;23.294;2022-07-19T09:37:29;166568.31;;;29.93;32.99
42945;BME280;28584;42.636;23.294;2022-07-19T09:39:56;166584.50;;;29.99;31.83
42945;BME280;28584;42.636;23.294;2022-07-19T09:42:35;166430.22;;;29.42;30.83
42945;BME280;28584;42.636;23.294;2022-07-19T09:45:04;166231.28;;;28.68;32.57
42945;BME280;28584;42.636;23.294;2022-07-19T09:47:41;166330.06;;;29.05;32.82
42945;BME280;28584;42.636;23.294;2022-07-19T09:50:09;166403.13;;;29.32;32.17
42945;BME280;28584;42.636;23.294;2022-07-19T09:52:35;166228.59;;;28.67;33.41
42945;BME280;28584;42.636;23.294;2022-07-19T09:55:04;165914.78;;;27.51;35.05
42945;BME280;28584;42.636;23.294;2022-07-19T09:57:34;166285.38;;;28.88;33.65
42945;BME280;28584;42.636;23.294;2022-07-19T10:00:00;166481.66;;;29.61;32.26
42945;BME280;28584;42.636;23.294;2022-07-19T10:02:29;166147.38;;;28.37;33.87
42945;BME280;28584;42.636;23.294;2022-07-19T10:04:59;166259.72;;;28.79;33.19
42945;BME280;28584;42.636;23.294;2022-07-19T10:07:25;166516.84;;;29.74;33.36
42945;BME280;28584;42.636;23.294;2022-07-19T10:09:51;166435.59;;;29.44;33.03
42945;BME280;28584;42.636;23.294;2022-07-19T10:12:16;166327.38;;;29.04;33.47
42945;BME280;28584;42.636;23.294;2022-07-19T10:14:42;166488.47;;;29.64;32.67
42945;BME280;28584;42.636;23.294;2022-07-19T10:19:49;166699.63;;;30.42;30.10
42945;BME280;28584;42.636;23.294;2022-07-19T10:22:17;166701.00;;;30.42;30.78
42945;BME280;28584;42.636;23.294;2022-07-19T10:32:28;166457.28;;;29.52;32.77
42945;BME280;28584;42.636;23.294;2022-07-19T10:37:53;166923.13;;;31.24;30.75
42945;BME280;28584;42.636;23.294;2022-07-19T10:43:05;166606.19;;;30.07;30.49
42945;BME280;28584;42.636;23.294;2022-07-19T10:45:31;166256.97;;;28.78;32.75
42945;BME280;28584;42.636;23.294;2022-07-19T10:48:09;166381.50;;;29.24;34.24
42945;BME280;28584;42.636;23.294;2022-07-19T10:50:58;166585.88;;;30.00;31.82
42945;BME280;28584;42.636;23.294;2022-07-19T10:56:15;166737.53;;;30.56;30.21
42945;BME280;28584;42.636;23.294;2022-07-19T10:58:58;166641.41;;;30.20;31.24
42945;BME280;28584;42.636;23.294;2022-07-19T11:01:25;166395.00;;;29.29;32.38
42945;BME280;28584;42.636;23.294;2022-07-19T11:03:53;166404.50;;;29.33;32.39
42945;BME280;28584;42.636;23.294;2022-07-19T11:06:24;166474.84;;;29.59;32.88
42945;BME280;28584;42.636;23.294;2022-07-19T11:08:56;166630.59;;;30.16;31.63
42945;BME280;28584;42.636;23.294;2022-07-19T11:11:22;166882.50;;;31.09;30.52
42945;BME280;28584;42.636;23.294;2022-07-19T11:13:51;166660.38;;;30.27;30.27
42945;BME280;28584;42.636;23.294;2022-07-19T11:16:17;166305.69;;;28.96;32.48
42945;BME280;28584;42.636;23.294;2022-07-19T11:18:43;166119.00;;;28.27;33.96
42945;BME280;28584;42.636;23.294;2022-07-19T11:21:10;165856.72;;;27.30;36.24
42945;BME280;28584;42.636;23.294;2022-07-19T11:23:38;166016.25;;;27.89;34.99
42945;BME280;28584;42.636;23.294;2022-07-19T11:28:35;165589.06;;;26.30;36.38
42945;BME280;28584;42.636;23.294;2022-07-19T11:31:30;165826.88;;;27.19;36.05
42945;BME280;28584;42.636;23.294;2022-07-19T11:33:56;166106.81;;;28.22;34.12
42945;BME280;28584;42.636;23.294;2022-07-19T11:36:25;166248.84;;;28.75;32.78
42945;BME280;28584;42.636;23.294;2022-07-19T11:38:54;166240.78;;;28.72;33.85
42945;BME280;28584;42.636;23.294;2022-07-19T11:41:27;166256.97;;;28.78;34.11
42945;BME280;28584;42.636;23.294;2022-07-19T11:43:58;166173.09;;;28.47;33.99
42945;BME280;28584;42.636;23.294;2022-07-19T11:46:27;166067.59;;;28.08;33.98
42945;BME280;28584;42.636;23.294;2022-07-19T11:49:00;165945.88;;;27.63;36.10
42945;BME280;28584;42.636;23.294;2022-07-19T11:51:27;165918.84;;;27.53;35.24
42945;BME280;28584;42.636;23.294;2022-07-19T11:53:56;165839.09;;;27.23;36.15
42945;BME280;28584;42.636;23.294;2022-07-19T11:56:27;165901.28;;;27.46;35.70
42945;BME280;28584;42.636;23.294;2022-07-19T11:58:54;166148.75;;;28.38;33.92
42945;BME280;28584;42.636;23.294;2022-07-19T12:01:34;166147.38;;;28.37;35.37
42945;BME280;28584;42.636;23.294;2022-07-19T12:04:00;166373.38;;;29.21;33.26
42945;BME280;28584;42.636;23.294;2022-07-19T12:06:44;166324.69;;;29.03;33.16
42945;BME280;28584;42.636;23.294;2022-07-19T12:09:14;166225.91;;;28.66;34.60
42945;BME280;28584;42.636;23.294;2022-07-19T12:11:49;166005.38;;;27.85;34.43
42945;BME280;28584;42.636;23.294;2022-07-19T12:14:19;166047.31;;;28.00;35.79
42945;BME280;28584;42.636;23.294;2022-07-19T12:16:45;166162.25;;;28.43;34.50
42945;BME280;28584;42.636;23.294;2022-07-19T12:19:11;165863.44;;;27.32;34.13
42945;BME280;28584;42.636;23.294;2022-07-19T12:21:40;165760.69;;;26.94;35.01
42945;BME280;28584;42.636;23.294;2022-07-19T12:24:26;165593.13;;;26.32;36.10
42945;BME280;28584;42.636;23.294;2022-07-19T12:29:22;165478.28;;;25.89;37.42
42945;BME280;28584;42.636;23.294;2022-07-19T12:31:50;165448.59;;;25.78;36.99
42945;BME280;28584;42.636;23.294;2022-07-19T12:34:16;165522.88;;;26.06;36.74
42945;BME280;28584;42.636;23.294;2022-07-19T12:36:42;165567.47;;;26.22;36.17
42945;BME280;28584;42.636;23.294;2022-07-19T12:41:57;165529.66;;;26.08;36.50
42945;BME280;28584;42.636;23.294;2022-07-19T12:44:24;165497.25;;;25.96;37.34
42945;BME280;28584;42.636;23.294;2022-07-19T12:46:49;165458.00;;;25.82;36.87
42945;BME280;28584;42.636;23.294;2022-07-19T12:49:15;165436.44;;;25.74;36.96
42945;BME280;28584;42.636;23.294;2022-07-19T12:51:40;165521.56;;;26.05;36.32
42945;BME280;28584;42.636;23.294;2022-07-19T12:54:09;165643.13;;;26.50;36.43
42945;BME280;28584;42.636;23.294;2022-07-19T12:56:35;165681.00;;;26.65;34.20
42945;BME280;28584;42.636;23.294;2022-07-19T12:59:01;165716.13;;;26.78;34.66
42945;BME280;28584;42.636;23.294;2022-07-19T13:01:45;165686.38;;;26.67;35.25